Time;durP1;ratioP1;P1;durP2;ratioP2;P2;SDS_P1;SDS_P2;PMS_P1;PMS_P2;Temp;Humidity;BMP_temperature;BMP_pressure;BME280_temperature;BME280_humidity;BME280_pressure;Samples;Min_cycle;Max_cycle;Signal;HPM_P1;HPM_P2
2022/10/21 00:02:21;;;;;;;22.27;8.07;;;;;;;;;;6354380;22;20207;-87
2022/10/21 00:05:26;;;;;;;19.80;8.00;;;;;;;;;;6353913;22;20169;-87
2022/10/21 00:11:50;;;;;;;16.63;8.02;;;;;;;;;;6354895;22;20206;-92
2022/10/21 00:14:56;;;;;;;17.88;7.95;;;;;;;;;;6353699;22;20168;-89
2022/10/21 00:18:03;;;;;;;18.67;8.77;;;;;;;;;;6353698;22;20167;-89
2022/10/21 00:21:09;;;;;;;19.17;7.72;;;;;;;;;;6353511;22;20203;-90
2022/10/21 00:24:14;;;;;;;19.20;8.10;;;;;;;;;;6354217;22;20187;-89
2022/10/21 00:27:19;;;;;;;20.00;8.23;;;;;;;;;;6352848;22;20168;-91
2022/10/21 00:30:24;;;;;;;20.75;8.25;;;;;;;;;;6354616;22;20172;-90
2022/10/21 00:33:31;;;;;;;24.08;8.77;;;;;;;;;;6352784;22;20220;-89
2022/10/21 00:36:37;;;;;;;15.07;7.00;;;;;;;;;;6354238;22;20172;-89
2022/10/21 00:39:42;;;;;;;22.63;8.18;;;;;;;;;;6355720;22;20176;-89
2022/10/21 00:42:47;;;;;;;18.15;7.68;;;;;;;;;;6354587;22;20160;-90
2022/10/21 00:45:55;;;;;;;21.92;8.25;;;;;;;;;;6355001;22;20151;-90
2022/10/21 00:49:04;;;;;;;24.10;8.02;;;;;;;;;;6354293;22;20157;-87
2022/10/21 00:52:12;;;;;;;13.85;7.82;;;;;;;;;;6354477;22;20199;-88
2022/10/21 00:55:18;;;;;;;21.02;8.23;;;;;;;;;;6353559;22;20176;-90
2022/10/21 00:58:24;;;;;;;22.10;8.60;;;;;;;;;;6355031;22;20164;-90
2022/10/21 01:01:30;;;;;;;17.42;7.68;;;;;;;;;;6354717;22;20187;-90
2022/10/21 01:04:37;;;;;;;27.23;8.35;;;;;;;;;;6352701;22;20184;-87
2022/10/21 01:07:42;;;;;;;15.07;8.02;;;;;;;;;;6355061;22;20178;-89
2022/10/21 01:10:48;;;;;;;30.55;8.48;;;;;;;;;;6353959;22;20217;-88
2022/10/21 01:14:09;;;;;;;24.95;8.10;;;;;;;;;;6353223;22;20168;-89
2022/10/21 01:17:21;;;;;;;19.48;7.65;;;;;;;;;;6354409;22;20184;-91
2022/10/21 01:20:39;;;;;;;19.63;8.45;;;;;;;;;;6354589;22;20159;-88
2022/10/21 01:23:58;;;;;;;17.23;7.90;;;;;;;;;;6354918;22;20234;-90
2022/10/21 01:27:19;;;;;;;17.42;8.15;;;;;;;;;;6356000;22;20168;-91
2022/10/21 01:30:33;;;;;;;17.13;8.40;;;;;;;;;;6354672;22;20219;-89
2022/10/21 01:33:43;;;;;;;16.10;8.10;;;;;;;;;;6353778;22;20164;-90
2022/10/21 01:36:51;;;;;;;22.13;8.15;;;;;;;;;;6353695;22;20168;-89
2022/10/21 01:39:59;;;;;;;18.98;9.18;;;;;;;;;;6354160;22;20498;-89
2022/10/21 01:43:07;;;;;;;21.75;8.32;;;;;;;;;;6354669;22;20206;-90
2022/10/21 01:46:17;;;;;;;23.08;9.43;;;;;;;;;;6354092;22;20172;-89
2022/10/21 01:49:25;;;;;;;19.67;8.90;;;;;;;;;;6354096;22;20162;-90
2022/10/21 01:52:31;;;;;;;14.27;8.40;;;;;;;;;;6354557;22;20161;-89
2022/10/21 01:55:36;;;;;;;14.73;7.80;;;;;;;;;;6355304;22;20210;-88
2022/10/21 01:58:42;;;;;;;23.23;8.30;;;;;;;;;;6355372;22;20215;-89
2022/10/21 02:01:51;;;;;;;32.33;8.50;;;;;;;;;;6354208;22;20194;-89
2022/10/21 02:04:59;;;;;;;16.38;8.40;;;;;;;;;;6354226;22;20187;-88
2022/10/21 02:08:04;;;;;;;17.63;8.82;;;;;;;;;;6354262;22;20578;-89
2022/10/21 02:11:11;;;;;;;18.58;8.77;;;;;;;;;;6354572;22;20191;-88
2022/10/21 02:14:20;;;;;;;15.80;8.60;;;;;;;;;;6354494;22;20572;-90
2022/10/21 02:17:28;;;;;;;16.85;8.43;;;;;;;;;;6354969;22;20207;-91
2022/10/21 02:20:39;;;;;;;16.83;8.57;;;;;;;;;;6353039;22;20172;-89
2022/10/21 02:23:50;;;;;;;25.67;7.82;;;;;;;;;;6354262;22;20169;-88
2022/10/21 02:26:55;;;;;;;19.30;8.75;;;;;;;;;;6353912;22;20231;-90
2022/10/21 02:30:01;;;;;;;17.10;8.55;;;;;;;;;;6353355;22;20187;-90
2022/10/21 02:33:10;;;;;;;17.40;8.00;;;;;;;;;;6353539;22;20165;-91
2022/10/21 02:36:16;;;;;;;17.63;8.32;;;;;;;;;;6355018;22;20209;-90
2022/10/21 02:39:28;;;;;;;26.00;8.25;;;;;;;;;;6356051;22;20172;-88
2022/10/21 02:42:35;;;;;;;25.35;9.30;;;;;;;;;;6356058;22;20192;-88
2022/10/21 02:45:41;;;;;;;29.73;9.20;;;;;;;;;;6356512;22;20184;-89
2022/10/21 02:48:48;;;;;;;36.42;9.13;;;;;;;;;;6358146;22;20215;-88
2022/10/21 02:51:54;;;;;;;31.42;9.30;;;;;;;;;;6357364;22;20526;-88
2022/10/21 02:55:01;;;;;;;21.23;9.32;;;;;;;;;;6356991;22;20172;-91
2022/10/21 02:58:06;;;;;;;19.13;9.18;;;;;;;;;;6356423;22;20164;-89
2022/10/21 03:01:12;;;;;;;28.15;9.40;;;;;;;;;;6357674;22;20173;-90
2022/10/21 03:04:20;;;;;;;18.83;9.18;;;;;;;;;;6357290;22;20165;-89
2022/10/21 03:07:26;;;;;;;23.27;9.32;;;;;;;;;;6357935;22;20176;-90
2022/10/21 03:10:31;;;;;;;21.48;9.27;;;;;;;;;;6356921;22;20187;-91
2022/10/21 03:13:36;;;;;;;31.95;12.07;;;;;;;;;;6355357;22;20669;-89
2022/10/21 03:16:42;;;;;;;20.92;9.07;;;;;;;;;;6356495;22;20160;-87
2022/10/21 03:19:49;;;;;;;25.23;9.05;;;;;;;;;;6356256;22;20169;-89
2022/10/21 03:22:54;;;;;;;30.05;9.23;;;;;;;;;;6356398;22;20196;-88
2022/10/21 03:26:00;;;;;;;20.48;9.68;;;;;;;;;;6356689;22;20168;-90
2022/10/21 03:29:06;;;;;;;53.42;11.55;;;;;;;;;;6357636;22;20195;-90
2022/10/21 03:32:12;;;;;;;32.72;10.02;;;;;;;;;;6356422;22;20161;-89
2022/10/21 03:35:20;;;;;;;21.05;10.13;;;;;;;;;;6356459;22;20194;-92
2022/10/21 03:38:26;;;;;;;69.20;11.77;;;;;;;;;;6356839;22;20168;-89
2022/10/21 03:41:32;;;;;;;27.40;10.88;;;;;;;;;;6356803;22;20196;-89
2022/10/21 03:45:07;;;;;;;33.97;11.52;;;;;;;;;;6356733;22;20179;-90
2022/10/21 03:48:12;;;;;;;24.85;10.70;;;;;;;;;;6357599;22;20173;-91
2022/10/21 03:51:20;;;;;;;30.10;11.07;;;;;;;;;;6358663;22;20148;-90
2022/10/21 03:54:26;;;;;;;73.88;12.10;;;;;;;;;;6357439;22;20173;-90
2022/10/21 03:57:31;;;;;;;29.02;10.75;;;;;;;;;;6356084;22;20198;-89
2022/10/21 04:00:38;;;;;;;23.88;10.02;;;;;;;;;;6357059;22;20152;-91
2022/10/21 22:59:08;;;;;;;26.67;12.57;;;;;;;;;;6230385;23;20626;-90
2022/10/21 23:02:13;;;;;;;33.30;13.05;;;;;;;;;;6213981;23;20191;-88
2022/10/21 23:05:19;;;;;;;31.52;13.73;;;;;;;;;;6214208;23;20167;-90
2022/10/21 23:08:24;;;;;;;25.98;12.82;;;;;;;;;;6214689;23;20245;-89
2022/10/21 23:11:30;;;;;;;31.10;14.02;;;;;;;;;;6214113;23;20243;-91
2022/10/21 23:14:39;;;;;;;26.50;12.23;;;;;;;;;;6216213;23;20174;-92
2022/10/21 23:17:46;;;;;;;22.17;12.32;;;;;;;;;;6221194;23;20191;-89
2022/10/21 23:20:52;;;;;;;28.23;14.98;;;;;;;;;;6221266;23;20191;-91
2022/10/21 23:23:57;;;;;;;42.67;15.25;;;;;;;;;;6220891;23;20231;-90
2022/10/21 23:27:07;;;;;;;31.40;12.70;;;;;;;;;;6220995;23;20191;-93
2022/10/21 23:30:29;;;;;;;26.42;12.80;;;;;;;;;;6222456;23;20207;-92
2022/10/21 23:33:41;;;;;;;24.30;12.95;;;;;;;;;;6221849;23;20194;-89
2022/10/21 23:45:57;;;;;;;27.75;13.65;;;;;;;;;;6241142;22;20185;-92
2022/10/21 23:49:04;;;;;;;29.02;11.80;;;;;;;;;;6276428;22;20191;-90
2022/10/21 23:52:18;;;;;;;27.45;12.98;;;;;;;;;;6277503;22;20155;-89
2022/10/21 23:55:23;;;;;;;29.23;13.90;;;;;;;;;;6276472;22;20191;-92
2022/10/21 23:58:33;;;;;;;25.80;12.50;;;;;;;;;;6275743;22;20198;-88
